sensor_id;sensor_type;location;lat;lon;timestamp;P1;durP1;ratioP1;P2;durP2;ratioP2
39452;SDS011;25154;-33.684;151.102;2023-04-07T00:00:29;5.07;;;1.92;;
39452;SDS011;25154;-33.684;151.102;2023-04-07T00:05:32;3.72;;;1.92;;
39452;SDS011;25154;-33.684;151.102;2023-04-07T00:10:35;8.32;;;1.90;;
39452;SDS011;25154;-33.684;151.102;2023-04-07T00:15:38;3.75;;;1.60;;
39452;SDS011;25154;-33.684;151.102;2023-04-07T00:20:41;5.93;;;1.77;;
39452;SDS011;25154;-33.684;151.102;2023-04-07T00:25:44;4.45;;;1.88;;
39452;SDS011;25154;-33.684;151.102;2023-04-07T00:30:48;5.88;;;2.10;;
39452;SDS011;25154;-33.684;151.102;2023-04-07T00:35:51;4.72;;;1.98;;
39452;SDS011;25154;-33.684;151.102;2023-04-07T00:40:57;6.25;;;2.10;;
39452;SDS011;25154;-33.684;151.102;2023-04-07T00:46:00;6.60;;;1.80;;
39452;SDS011;25154;-33.684;151.102;2023-04-07T00:51:03;5.20;;;1.80;;
39452;SDS011;25154;-33.684;151.102;2023-04-07T00:56:07;4.32;;;1.60;;
39452;SDS011;25154;-33.684;151.102;2023-04-07T01:06:27;4.78;;;1.73;;
39452;SDS011;25154;-33.684;151.102;2023-04-07T01:16:58;6.32;;;2.10;;
39452;SDS011;25154;-33.684;151.102;2023-04-07T01:28:04;4.45;;;2.03;;
39452;SDS011;25154;-33.684;151.102;2023-04-07T01:32:44;4.72;;;1.50;;
39452;SDS011;25154;-33.684;151.102;2023-04-07T01:37:51;5.32;;;1.27;;
39452;SDS011;25154;-33.684;151.102;2023-04-07T01:42:55;4.63;;;1.20;;
39452;SDS011;25154;-33.684;151.102;2023-04-07T01:47:58;3.03;;;1.08;;
39452;SDS011;25154;-33.684;151.102;2023-04-07T01:53:02;3.50;;;1.20;;
39452;SDS011;25154;-33.684;151.102;2023-04-07T01:58:05;4.57;;;1.13;;
39452;SDS011;25154;-33.684;151.102;2023-04-07T02:03:12;4.20;;;0.90;;
39452;SDS011;25154;-33.684;151.102;2023-04-07T02:08:20;4.10;;;0.93;;
39452;SDS011;25154;-33.684;151.102;2023-04-07T02:13:27;1.95;;;0.80;;
39452;SDS011;25154;-33.684;151.102;2023-04-07T02:18:30;8.68;;;1.00;;
39452;SDS011;25154;-33.684;151.102;2023-04-07T02:23:34;3.17;;;0.90;;
39452;SDS011;25154;-33.684;151.102;2023-04-07T02:28:37;4.70;;;0.82;;
39452;SDS011;25154;-33.684;151.102;2023-04-07T02:33:40;4.82;;;1.10;;
39452;SDS011;25154;-33.684;151.102;2023-04-07T02:38:42;7.65;;;0.88;;
39452;SDS011;25154;-33.684;151.102;2023-04-07T02:43:45;3.10;;;1.05;;
39452;SDS011;25154;-33.684;151.102;2023-04-07T02:48:48;15.82;;;1.45;;
39452;SDS011;25154;-33.684;151.102;2023-04-07T02:53:52;2.40;;;0.80;;
39452;SDS011;25154;-33.684;151.102;2023-04-07T02:58:55;2.53;;;0.70;;
39452;SDS011;25154;-33.684;151.102;2023-04-07T03:03:57;3.25;;;1.10;;
39452;SDS011;25154;-33.684;151.102;2023-04-07T03:09:00;9.90;;;1.20;;
39452;SDS011;25154;-33.684;151.102;2023-04-07T03:14:03;1.73;;;0.80;;
39452;SDS011;25154;-33.684;151.102;2023-04-07T03:19:06;0.85;;;0.68;;
39452;SDS011;25154;-33.684;151.102;2023-04-07T03:24:09;2.90;;;0.93;;
39452;SDS011;25154;-33.684;151.102;2023-04-07T03:29:12;3.10;;;0.77;;
39452;SDS011;25154;-33.684;151.102;2023-04-07T03:34:15;2.90;;;0.80;;
39452;SDS011;25154;-33.684;151.102;2023-04-07T03:39:17;1.15;;;0.70;;
39452;SDS011;25154;-33.684;151.102;2023-04-07T03:44:21;1.95;;;0.80;;
39452;SDS011;25154;-33.684;151.102;2023-04-07T03:49:24;1.95;;;0.60;;
39452;SDS011;25154;-33.684;151.102;2023-04-07T03:54:26;2.50;;;0.70;;
39452;SDS011;25154;-33.684;151.102;2023-04-07T03:59:32;2.70;;;0.90;;
39452;SDS011;25154;-33.684;151.102;2023-04-07T04:04:35;1.73;;;0.70;;
39452;SDS011;25154;-33.684;151.102;2023-04-07T04:09:38;2.58;;;0.90;;
39452;SDS011;25154;-33.684;151.102;2023-04-07T04:14:41;2.30;;;0.70;;
39452;SDS011;25154;-33.684;151.102;2023-04-07T04:19:43;1.77;;;0.70;;
39452;SDS011;25154;-33.684;151.102;2023-04-07T04:24:46;2.13;;;0.80;;
39452;SDS011;25154;-33.684;151.102;2023-04-07T04:29:49;0.73;;;0.55;;
39452;SDS011;25154;-33.684;151.102;2023-04-07T04:34:52;1.48;;;0.75;;
39452;SDS011;25154;-33.684;151.102;2023-04-07T04:39:55;1.45;;;0.70;;
39452;SDS011;25154;-33.684;151.102;2023-04-07T04:44:57;0.88;;;0.50;;
39452;SDS011;25154;-33.684;151.102;2023-04-07T04:50:00;1.33;;;0.90;;
39452;SDS011;25154;-33.684;151.102;2023-04-07T04:55:03;2.17;;;0.80;;
39452;SDS011;25154;-33.684;151.102;2023-04-07T05:00:06;1.40;;;0.65;;
39452;SDS011;25154;-33.684;151.102;2023-04-07T05:05:09;0.73;;;0.60;;
39452;SDS011;25154;-33.684;151.102;2023-04-07T05:10:12;2.97;;;0.68;;
39452;SDS011;25154;-33.684;151.102;2023-04-07T05:15:15;1.40;;;0.70;;
39452;SDS011;25154;-33.684;151.102;2023-04-07T05:20:18;1.48;;;0.60;;
39452;SDS011;25154;-33.684;151.102;2023-04-07T05:25:21;0.95;;;0.47;;
39452;SDS011;25154;-33.684;151.102;2023-04-07T05:30:24;0.63;;;0.52;;
39452;SDS011;25154;-33.684;151.102;2023-04-07T05:35:26;0.45;;;0.45;;
39452;SDS011;25154;-33.684;151.102;2023-04-07T05:40:29;1.27;;;0.75;;
39452;SDS011;25154;-33.684;151.102;2023-04-07T05:45:32;2.72;;;0.90;;
39452;SDS011;25154;-33.684;151.102;2023-04-07T05:50:37;1.48;;;0.60;;
39452;SDS011;25154;-33.684;151.102;2023-04-07T05:55:43;0.98;;;0.60;;
39452;SDS011;25154;-33.684;151.102;2023-04-07T06:00:46;1.30;;;0.60;;
39452;SDS011;25154;-33.684;151.102;2023-04-07T06:05:49;1.13;;;0.70;;
39452;SDS011;25154;-33.684;151.102;2023-04-07T06:10:52;1.45;;;0.70;;
39452;SDS011;25154;-33.684;151.102;2023-04-07T06:15:56;1.55;;;0.90;;
39452;SDS011;25154;-33.684;151.102;2023-04-07T06:20:58;1.58;;;0.82;;
39452;SDS011;25154;-33.684;151.102;2023-04-07T06:26:01;2.30;;;0.70;;
39452;SDS011;25154;-33.684;151.102;2023-04-07T06:31:04;1.80;;;0.73;;
39452;SDS011;25154;-33.684;151.102;2023-04-07T06:36:08;2.00;;;0.93;;
39452;SDS011;25154;-33.684;151.102;2023-04-07T06:41:11;1.42;;;0.70;;
39452;SDS011;25154;-33.684;151.102;2023-04-07T06:46:17;1.58;;;0.60;;
39452;SDS011;25154;-33.684;151.102;2023-04-07T06:51:20;2.50;;;0.73;;
39452;SDS011;25154;-33.684;151.102;2023-04-07T06:56:22;1.65;;;0.90;;
39452;SDS011;25154;-33.684;151.102;2023-04-07T07:01:25;1.95;;;1.00;;
39452;SDS011;25154;-33.684;151.102;2023-04-07T07:06:28;1.48;;;0.80;;
39452;SDS011;25154;-33.684;151.102;2023-04-07T07:11:31;4.28;;;0.80;;
39452;SDS011;25154;-33.684;151.102;2023-04-07T07:16:34;2.08;;;0.60;;
39452;SDS011;25154;-33.684;151.102;2023-04-07T07:21:37;1.27;;;0.70;;
39452;SDS011;25154;-33.684;151.102;2023-04-07T07:26:40;1.13;;;0.70;;
39452;SDS011;25154;-33.684;151.102;2023-04-07T07:31:42;2.53;;;0.68;;
39452;SDS011;25154;-33.684;151.102;2023-04-07T07:36:45;0.90;;;0.77;;
39452;SDS011;25154;-33.684;151.102;2023-04-07T07:41:48;1.42;;;0.95;;
39452;SDS011;25154;-33.684;151.102;2023-04-07T07:46:51;1.30;;;0.80;;
39452;SDS011;25154;-33.684;151.102;2023-04-07T07:51:54;1.70;;;0.80;;
39452;SDS011;25154;-33.684;151.102;2023-04-07T07:56:57;2.38;;;1.00;;
39452;SDS011;25154;-33.684;151.102;2023-04-07T08:02:00;1.60;;;0.80;;
39452;SDS011;25154;-33.684;151.102;2023-04-07T08:07:02;2.22;;;1.15;;
39452;SDS011;25154;-33.684;151.102;2023-04-07T08:12:05;3.30;;;1.20;;
39452;SDS011;25154;-33.684;151.102;2023-04-07T08:17:08;3.17;;;1.02;;
39452;SDS011;25154;-33.684;151.102;2023-04-07T08:22:12;4.03;;;0.90;;
39452;SDS011;25154;-33.684;151.102;2023-04-07T08:27:15;1.80;;;1.00;;
39452;SDS011;25154;-33.684;151.102;2023-04-07T08:32:18;2.15;;;1.00;;
39452;SDS011;25154;-33.684;151.102;2023-04-07T08:37:20;3.45;;;1.13;;
39452;SDS011;25154;-33.684;151.102;2023-04-07T08:42:24;2.58;;;1.00;;
39452;SDS011;25154;-33.684;151.102;2023-04-07T08:47:30;1.67;;;0.90;;
39452;SDS011;25154;-33.684;151.102;2023-04-07T08:52:37;3.75;;;0.95;;
39452;SDS011;25154;-33.684;151.102;2023-04-07T08:57:47;3.03;;;0.88;;
39452;SDS011;25154;-33.684;151.102;2023-04-07T09:02:50;3.08;;;0.90;;
39452;SDS011;25154;-33.684;151.102;2023-04-07T09:07:53;2.65;;;1.05;;
39452;SDS011;25154;-33.684;151.102;2023-04-07T09:12:57;2.38;;;1.05;;
39452;SDS011;25154;-33.684;151.102;2023-04-07T09:18:00;4.88;;;1.15;;
39452;SDS011;25154;-33.684;151.102;2023-04-07T09:23:04;3.25;;;1.20;;
39452;SDS011;25154;-33.684;151.102;2023-04-07T09:28:06;2.47;;;1.02;;
39452;SDS011;25154;-33.684;151.102;2023-04-07T09:33:09;2.25;;;1.00;;
39452;SDS011;25154;-33.684;151.102;2023-04-07T09:38:36;2.60;;;1.00;;
39452;SDS011;25154;-33.684;151.102;2023-04-07T09:43:42;1.50;;;0.85;;
39452;SDS011;25154;-33.684;151.102;2023-04-07T09:48:45;3.55;;;1.00;;
39452;SDS011;25154;-33.684;151.102;2023-04-07T09:53:49;3.95;;;1.10;;
39452;SDS011;25154;-33.684;151.102;2023-04-07T09:58:52;2.47;;;0.90;;
39452;SDS011;25154;-33.684;151.102;2023-04-07T10:03:58;1.52;;;0.90;;
39452;SDS011;25154;-33.684;151.102;2023-04-07T10:09:01;4.32;;;0.98;;
39452;SDS011;25154;-33.684;151.102;2023-04-07T10:14:03;1.48;;;0.90;;
39452;SDS011;25154;-33.684;151.102;2023-04-07T10:19:06;3.13;;;0.93;;
39452;SDS011;25154;-33.684;151.102;2023-04-07T10:29:39;3.40;;;0.88;;
39452;SDS011;25154;-33.684;151.102;2023-04-07T10:35:04;1.88;;;0.80;;
39452;SDS011;25154;-33.684;151.102;2023-04-07T10:56:07;3.10;;;1.10;;
39452;SDS011;25154;-33.684;151.102;2023-04-07T11:06:12;2.00;;;1.17;;
39452;SDS011;25154;-33.684;151.102;2023-04-07T11:11:20;5.32;;;1.10;;
39452;SDS011;25154;-33.684;151.102;2023-04-07T11:16:41;2.08;;;1.30;;
39452;SDS011;25154;-33.684;151.102;2023-04-07T11:21:45;2.85;;;1.00;;
39452;SDS011;25154;-33.684;151.102;2023-04-07T11:26:47;1.83;;;1.08;;
39452;SDS011;25154;-33.684;151.102;2023-04-07T11:31:50;7.85;;;1.50;;
39452;SDS011;25154;-33.684;151.102;2023-04-07T11:36:52;4.28;;;1.10;;
39452;SDS011;25154;-33.684;151.102;2023-04-07T11:41:58;2.80;;;1.40;;
39452;SDS011;25154;-33.684;151.102;2023-04-07T11:47:01;5.28;;;1.40;;
39452;SDS011;25154;-33.684;151.102;2023-04-07T11:52:05;5.07;;;1.38;;
39452;SDS011;25154;-33.684;151.102;2023-04-07T11:57:07;4.72;;;1.20;;
39452;SDS011;25154;-33.684;151.102;2023-04-07T12:02:29;5.95;;;1.38;;
39452;SDS011;25154;-33.684;151.102;2023-04-07T12:07:38;5.47;;;1.27;;
39452;SDS011;25154;-33.684;151.102;2023-04-07T12:12:41;4.40;;;1.52;;
39452;SDS011;25154;-33.684;151.102;2023-04-07T12:17:46;4.53;;;1.13;;
39452;SDS011;25154;-33.684;151.102;2023-04-07T12:22:49;6.97;;;1.63;;
39452;SDS011;25154;-33.684;151.102;2023-04-07T12:27:52;5.38;;;1.58;;
39452;SDS011;25154;-33.684;151.102;2023-04-07T12:32:54;3.33;;;1.60;;
39452;SDS011;25154;-33.684;151.102;2023-04-07T12:37:57;4.57;;;1.40;;
39452;SDS011;25154;-33.684;151.102;2023-04-07T12:42:59;3.72;;;1.60;;
39452;SDS011;25154;-33.684;151.102;2023-04-07T12:48:02;2.60;;;1.30;;
39452;SDS011;25154;-33.684;151.102;2023-04-07T12:53:04;2.88;;;1.65;;
39452;SDS011;25154;-33.684;151.102;2023-04-07T12:58:07;2.45;;;1.30;;
39452;SDS011;25154;-33.684;151.102;2023-04-07T13:03:09;6.30;;;1.67;;
39452;SDS011;25154;-33.684;151.102;2023-04-07T13:08:12;2.85;;;1.50;;
39452;SDS011;25154;-33.684;151.102;2023-04-07T13:13:14;3.47;;;1.60;;
39452;SDS011;25154;-33.684;151.102;2023-04-07T13:18:16;4.60;;;1.60;;
39452;SDS011;25154;-33.684;151.102;2023-04-07T13:23:19;7.07;;;1.63;;
39452;SDS011;25154;-33.684;151.102;2023-04-07T13:28:21;6.03;;;2.15;;
39452;SDS011;25154;-33.684;151.102;2023-04-07T13:33:23;6.32;;;2.03;;
39452;SDS011;25154;-33.684;151.102;2023-04-07T13:38:26;8.60;;;1.70;;
39452;SDS011;25154;-33.684;151.102;2023-04-07T13:43:28;5.63;;;1.67;;
39452;SDS011;25154;-33.684;151.102;2023-04-07T13:48:30;5.05;;;1.67;;
39452;SDS011;25154;-33.684;151.102;2023-04-07T13:53:33;7.90;;;1.85;;
39452;SDS011;25154;-33.684;151.102;2023-04-07T13:58:35;6.15;;;1.75;;
39452;SDS011;25154;-33.684;151.102;2023-04-07T14:03:42;3.87;;;2.00;;
39452;SDS011;25154;-33.684;151.102;2023-04-07T14:08:44;8.13;;;1.63;;
39452;SDS011;25154;-33.684;151.102;2023-04-07T14:13:47;6.70;;;1.98;;
39452;SDS011;25154;-33.684;151.102;2023-04-07T14:18:50;4.22;;;1.77;;
39452;SDS011;25154;-33.684;151.102;2023-04-07T14:23:52;4.05;;;1.50;;
39452;SDS011;25154;-33.684;151.102;2023-04-07T14:28:56;3.35;;;1.73;;
39452;SDS011;25154;-33.684;151.102;2023-04-07T14:33:59;7.68;;;1.75;;
39452;SDS011;25154;-33.684;151.102;2023-04-07T14:39:01;4.93;;;2.00;;
39452;SDS011;25154;-33.684;151.102;2023-04-07T14:44:04;6.03;;;2.20;;
39452;SDS011;25154;-33.684;151.102;2023-04-07T14:49:06;6.15;;;2.17;;
39452;SDS011;25154;-33.684;151.102;2023-04-07T14:54:09;4.68;;;1.85;;
39452;SDS011;25154;-33.684;151.102;2023-04-07T14:59:11;5.22;;;1.88;;
39452;SDS011;25154;-33.684;151.102;2023-04-07T15:04:15;2.22;;;1.10;;
39452;SDS011;25154;-33.684;151.102;2023-04-07T15:09:20;3.30;;;0.93;;
39452;SDS011;25154;-33.684;151.102;2023-04-07T15:14:23;5.18;;;0.70;;
39452;SDS011;25154;-33.684;151.102;2023-04-07T15:19:25;0.75;;;0.60;;
39452;SDS011;25154;-33.684;151.102;2023-04-07T15:24:28;4.75;;;0.80;;
39452;SDS011;25154;-33.684;151.102;2023-04-07T15:29:32;4.00;;;1.08;;
39452;SDS011;25154;-33.684;151.102;2023-04-07T15:34:38;2.65;;;0.75;;
39452;SDS011;25154;-33.684;151.102;2023-04-07T15:39:40;2.83;;;0.70;;
39452;SDS011;25154;-33.684;151.102;2023-04-07T15:44:43;1.73;;;0.63;;
39452;SDS011;25154;-33.684;151.102;2023-04-07T15:49:45;1.45;;;0.80;;
39452;SDS011;25154;-33.684;151.102;2023-04-07T15:54:47;2.45;;;1.00;;
39452;SDS011;25154;-33.684;151.102;2023-04-07T15:59:50;1.25;;;0.77;;
39452;SDS011;25154;-33.684;151.102;2023-04-07T16:04:53;1.40;;;0.70;;
39452;SDS011;25154;-33.684;151.102;2023-04-07T16:09:56;3.08;;;0.90;;
39452;SDS011;25154;-33.684;151.102;2023-04-07T16:14:59;3.38;;;1.00;;
39452;SDS011;25154;-33.684;151.102;2023-04-07T16:20:01;4.50;;;1.25;;
39452;SDS011;25154;-33.684;151.102;2023-04-07T16:25:04;2.53;;;0.93;;
39452;SDS011;25154;-33.684;151.102;2023-04-07T16:30:07;1.83;;;0.80;;
39452;SDS011;25154;-33.684;151.102;2023-04-07T16:35:10;2.30;;;1.00;;
39452;SDS011;25154;-33.684;151.102;2023-04-07T16:40:15;1.75;;;0.88;;
39452;SDS011;25154;-33.684;151.102;2023-04-07T16:45:18;2.05;;;0.80;;
39452;SDS011;25154;-33.684;151.102;2023-04-07T16:50:20;1.85;;;0.82;;
39452;SDS011;25154;-33.684;151.102;2023-04-07T16:55:22;2.35;;;0.80;;
39452;SDS011;25154;-33.684;151.102;2023-04-07T17:00:25;3.13;;;0.70;;
39452;SDS011;25154;-33.684;151.102;2023-04-07T17:05:27;2.45;;;0.88;;
39452;SDS011;25154;-33.684;151.102;2023-04-07T17:10:30;3.03;;;0.68;;
39452;SDS011;25154;-33.684;151.102;2023-04-07T17:15:35;7.15;;;1.10;;
39452;SDS011;25154;-33.684;151.102;2023-04-07T17:20:37;1.85;;;0.70;;
39452;SDS011;25154;-33.684;151.102;2023-04-07T17:25:40;0.98;;;0.52;;
39452;SDS011;25154;-33.684;151.102;2023-04-07T17:30:42;1.73;;;0.70;;
39452;SDS011;25154;-33.684;151.102;2023-04-07T17:35:46;1.73;;;0.60;;
39452;SDS011;25154;-33.684;151.102;2023-04-07T17:40:55;2.58;;;0.80;;
39452;SDS011;25154;-33.684;151.102;2023-04-07T17:46:04;4.18;;;0.75;;
39452;SDS011;25154;-33.684;151.102;2023-04-07T17:51:06;2.03;;;0.70;;
39452;SDS011;25154;-33.684;151.102;2023-04-07T17:56:09;2.63;;;0.70;;
39452;SDS011;25154;-33.684;151.102;2023-04-07T18:01:12;2.83;;;1.02;;
39452;SDS011;25154;-33.684;151.102;2023-04-07T18:06:16;0.80;;;0.50;;
39452;SDS011;25154;-33.684;151.102;2023-04-07T18:11:19;1.05;;;0.60;;
39452;SDS011;25154;-33.684;151.102;2023-04-07T18:16:22;0.90;;;0.50;;
39452;SDS011;25154;-33.684;151.102;2023-04-07T18:21:26;2.60;;;0.70;;
39452;SDS011;25154;-33.684;151.102;2023-04-07T18:26:30;3.22;;;0.80;;
39452;SDS011;25154;-33.684;151.102;2023-04-07T18:31:33;3.60;;;0.90;;
39452;SDS011;25154;-33.684;151.102;2023-04-07T18:36:36;0.88;;;0.55;;
39452;SDS011;25154;-33.684;151.102;2023-04-07T18:41:42;2.20;;;0.50;;
39452;SDS011;25154;-33.684;151.102;2023-04-07T18:46:47;1.05;;;0.68;;
39452;SDS011;25154;-33.684;151.102;2023-04-07T18:51:49;1.55;;;0.60;;
39452;SDS011;25154;-33.684;151.102;2023-04-07T18:56:52;1.52;;;0.63;;
39452;SDS011;25154;-33.684;151.102;2023-04-07T19:01:58;3.83;;;0.70;;
39452;SDS011;25154;-33.684;151.102;2023-04-07T19:07:02;1.75;;;0.40;;
39452;SDS011;25154;-33.684;151.102;2023-04-07T19:12:05;1.10;;;0.50;;
39452;SDS011;25154;-33.684;151.102;2023-04-07T19:17:09;3.10;;;0.68;;
39452;SDS011;25154;-33.684;151.102;2023-04-07T19:22:11;0.65;;;0.50;;
39452;SDS011;25154;-33.684;151.102;2023-04-07T19:27:14;1.33;;;0.55;;
39452;SDS011;25154;-33.684;151.102;2023-04-07T19:32:17;2.78;;;0.43;;
39452;SDS011;25154;-33.684;151.102;2023-04-07T19:37:20;1.90;;;0.52;;
39452;SDS011;25154;-33.684;151.102;2023-04-07T19:42:23;1.90;;;0.70;;
39452;SDS011;25154;-33.684;151.102;2023-04-07T19:47:26;2.45;;;0.50;;
39452;SDS011;25154;-33.684;151.102;2023-04-07T19:52:30;1.45;;;0.45;;
39452;SDS011;25154;-33.684;151.102;2023-04-07T19:57:32;1.98;;;0.70;;
39452;SDS011;25154;-33.684;151.102;2023-04-07T20:02:35;1.95;;;0.47;;
39452;SDS011;25154;-33.684;151.102;2023-04-07T20:07:38;2.05;;;0.50;;
39452;SDS011;25154;-33.684;151.102;2023-04-07T20:12:41;4.28;;;0.60;;
39452;SDS011;25154;-33.684;151.102;2023-04-07T20:17:44;0.95;;;0.43;;
39452;SDS011;25154;-33.684;151.102;2023-04-07T20:22:47;2.25;;;0.80;;
39452;SDS011;25154;-33.684;151.102;2023-04-07T20:27:50;2.83;;;0.68;;
39452;SDS011;25154;-33.684;151.102;2023-04-07T20:32:53;1.05;;;0.50;;
39452;SDS011;25154;-33.684;151.102;2023-04-07T20:37:56;0.77;;;0.47;;
39452;SDS011;25154;-33.684;151.102;2023-04-07T20:42:59;0.40;;;0.40;;
39452;SDS011;25154;-33.684;151.102;2023-04-07T20:48:03;5.97;;;0.68;;
39452;SDS011;25154;-33.684;151.102;2023-04-07T20:53:07;1.00;;;0.50;;
39452;SDS011;25154;-33.684;151.102;2023-04-07T20:58:10;1.77;;;0.60;;
39452;SDS011;25154;-33.684;151.102;2023-04-07T21:03:13;2.70;;;1.48;;
39452;SDS011;25154;-33.684;151.102;2023-04-07T21:08:16;2.58;;;0.70;;
39452;SDS011;25154;-33.684;151.102;2023-04-07T21:13:24;1.73;;;1.23;;
39452;SDS011;25154;-33.684;151.102;2023-04-07T21:18:28;0.75;;;0.47;;
39452;SDS011;25154;-33.684;151.102;2023-04-07T21:23:31;1.10;;;0.52;;
39452;SDS011;25154;-33.684;151.102;2023-04-07T21:28:34;2.03;;;0.60;;
39452;SDS011;25154;-33.684;151.102;2023-04-07T21:33:39;3.63;;;0.70;;
39452;SDS011;25154;-33.684;151.102;2023-04-07T21:38:42;2.22;;;0.68;;
39452;SDS011;25154;-33.684;151.102;2023-04-07T21:43:45;2.30;;;0.70;;
39452;SDS011;25154;-33.684;151.102;2023-04-07T21:48:48;1.52;;;0.70;;
39452;SDS011;25154;-33.684;151.102;2023-04-07T21:53:51;0.88;;;0.40;;
39452;SDS011;25154;-33.684;151.102;2023-04-07T21:58:54;1.95;;;0.50;;
39452;SDS011;25154;-33.684;151.102;2023-04-07T22:03:57;0.85;;;0.45;;
39452;SDS011;25154;-33.684;151.102;2023-04-07T22:09:00;1.38;;;0.60;;
39452;SDS011;25154;-33.684;151.102;2023-04-07T22:14:03;1.85;;;0.60;;
39452;SDS011;25154;-33.684;151.102;2023-04-07T22:19:05;3.42;;;0.55;;
39452;SDS011;25154;-33.684;151.102;2023-04-07T22:24:08;2.65;;;0.52;;
39452;SDS011;25154;-33.684;151.102;2023-04-07T22:29:11;2.35;;;0.80;;
39452;SDS011;25154;-33.684;151.102;2023-04-07T22:34:14;4.40;;;1.23;;
39452;SDS011;25154;-33.684;151.102;2023-04-07T22:39:17;3.83;;;1.17;;
39452;SDS011;25154;-33.684;151.102;2023-04-07T22:44:19;3.47;;;1.25;;
39452;SDS011;25154;-33.684;151.102;2023-04-07T22:49:22;2.88;;;1.00;;
39452;SDS011;25154;-33.684;151.102;2023-04-07T22:54:25;3.83;;;1.10;;
39452;SDS011;25154;-33.684;151.102;2023-04-07T22:59:29;3.00;;;1.10;;
39452;SDS011;25154;-33.684;151.102;2023-04-07T23:04:32;1.35;;;0.57;;
39452;SDS011;25154;-33.684;151.102;2023-04-07T23:09:34;1.10;;;0.50;;
39452;SDS011;25154;-33.684;151.102;2023-04-07T23:14:37;0.98;;;0.52;;
39452;SDS011;25154;-33.684;151.102;2023-04-07T23:19:40;0.45;;;0.35;;
39452;SDS011;25154;-33.684;151.102;2023-04-07T23:24:43;0.95;;;0.60;;
39452;SDS011;25154;-33.684;151.102;2023-04-07T23:29:46;0.40;;;0.40;;
39452;SDS011;25154;-33.684;151.102;2023-04-07T23:34:48;1.10;;;0.47;;
39452;SDS011;25154;-33.684;151.102;2023-04-07T23:39:51;0.40;;;0.40;;
39452;SDS011;25154;-33.684;151.102;2023-04-07T23:50:04;0.43;;;0.40;;
39452;SDS011;25154;-33.684;151.102;2023-04-07T23:55:07;0.63;;;0.40;;
